sensor_id;sensor_type;location;lat;lon;timestamp;pressure;altitude;pressure_sealevel;temperature;humidity
21956;BME280;11142;49.930;8.606;2024-02-21T00:01:48;100950.06;;;9.07;100.00
21956;BME280;11142;49.930;8.606;2024-02-21T00:04:16;100939.97;;;9.01;100.00
21956;BME280;11142;49.930;8.606;2024-02-21T00:06:44;100928.66;;;9.03;100.00
21956;BME280;11142;49.930;8.606;2024-02-21T00:09:14;100926.56;;;9.12;100.00
21956;BME280;11142;49.930;8.606;2024-02-21T00:11:42;100929.53;;;9.23;100.00
21956;BME280;11142;49.930;8.606;2024-02-21T00:14:10;100934.34;;;9.12;100.00
21956;BME280;11142;49.930;8.606;2024-02-21T00:16:38;100926.28;;;8.99;100.00
21956;BME280;11142;49.930;8.606;2024-02-21T00:19:06;100915.56;;;8.88;100.00
21956;BME280;11142;49.930;8.606;2024-02-21T00:21:34;100913.38;;;8.97;100.00
21956;BME280;11142;49.930;8.606;2024-02-21T00:24:05;100916.16;;;9.13;100.00
21956;BME280;11142;49.930;8.606;2024-02-21T00:26:37;100917.38;;;9.04;100.00
21956;BME280;11142;49.930;8.606;2024-02-21T00:29:05;100905.69;;;8.96;100.00
21956;BME280;11142;49.930;8.606;2024-02-21T00:31:35;100889.19;;;8.98;100.00
21956;BME280;11142;49.930;8.606;2024-02-21T00:34:03;100869.28;;;8.80;100.00
21956;BME280;11142;49.930;8.606;2024-02-21T00:36:31;100865.84;;;8.80;100.00
21956;BME280;11142;49.930;8.606;2024-02-21T00:38:59;100860.69;;;8.80;100.00
21956;BME280;11142;49.930;8.606;2024-02-21T00:41:27;100867.16;;;8.90;100.00
21956;BME280;11142;49.930;8.606;2024-02-21T00:43:56;100862.88;;;9.07;100.00
21956;BME280;11142;49.930;8.606;2024-02-21T00:46:24;100860.78;;;8.97;100.00
21956;BME280;11142;49.930;8.606;2024-02-21T00:48:52;100858.78;;;9.03;100.00
21956;BME280;11142;49.930;8.606;2024-02-21T00:51:21;100854.50;;;9.02;100.00
21956;BME280;11142;49.930;8.606;2024-02-21T00:53:49;100853.84;;;8.97;100.00
21956;BME280;11142;49.930;8.606;2024-02-21T00:56:17;100843.56;;;8.96;100.00
21956;BME280;11142;49.930;8.606;2024-02-21T00:58:44;100835.94;;;8.93;100.00
21956;BME280;11142;49.930;8.606;2024-02-21T01:01:21;100834.91;;;8.97;100.00
21956;BME280;11142;49.930;8.606;2024-02-21T01:03:50;100842.69;;;9.16;100.00
21956;BME280;11142;49.930;8.606;2024-02-21T01:06:21;100839.94;;;9.19;100.00
21956;BME280;11142;49.930;8.606;2024-02-21T01:08:50;100844.56;;;9.12;100.00
21956;BME280;11142;49.930;8.606;2024-02-21T01:11:18;100842.25;;;9.25;100.00
21956;BME280;11142;49.930;8.606;2024-02-21T01:13:46;100849.81;;;9.29;100.00
21956;BME280;11142;49.930;8.606;2024-02-21T01:16:16;100855.06;;;9.28;100.00
21956;BME280;11142;49.930;8.606;2024-02-21T01:18:44;100860.16;;;9.29;100.00
21956;BME280;11142;49.930;8.606;2024-02-21T01:21:13;100862.69;;;9.31;100.00
21956;BME280;11142;49.930;8.606;2024-02-21T01:23:43;100873.25;;;9.26;100.00
21956;BME280;11142;49.930;8.606;2024-02-21T01:26:11;100875.56;;;9.14;100.00
21956;BME280;11142;49.930;8.606;2024-02-21T01:28:40;100861.22;;;9.06;100.00
21956;BME280;11142;49.930;8.606;2024-02-21T01:31:10;100866.19;;;9.11;100.00
21956;BME280;11142;49.930;8.606;2024-02-21T01:33:41;100870.47;;;9.12;100.00
21956;BME280;11142;49.930;8.606;2024-02-21T01:36:09;100875.13;;;9.04;100.00
21956;BME280;11142;49.930;8.606;2024-02-21T01:38:38;100870.59;;;9.09;100.00
21956;BME280;11142;49.930;8.606;2024-02-21T01:41:06;100857.09;;;9.02;100.00
21956;BME280;11142;49.930;8.606;2024-02-21T01:43:34;100841.19;;;9.10;100.00
21956;BME280;11142;49.930;8.606;2024-02-21T01:46:02;100838.50;;;9.13;100.00
21956;BME280;11142;49.930;8.606;2024-02-21T01:48:30;100854.91;;;9.31;100.00
21956;BME280;11142;49.930;8.606;2024-02-21T01:51:00;100855.97;;;9.27;100.00
21956;BME280;11142;49.930;8.606;2024-02-21T01:53:30;100842.97;;;9.28;100.00
21956;BME280;11142;49.930;8.606;2024-02-21T01:56:00;100840.09;;;9.34;100.00
21956;BME280;11142;49.930;8.606;2024-02-21T01:58:29;100834.91;;;9.34;100.00
21956;BME280;11142;49.930;8.606;2024-02-21T02:00:58;100839.59;;;9.26;100.00
21956;BME280;11142;49.930;8.606;2024-02-21T02:18:01;100821.81;;;9.00;100.00
21956;BME280;11142;49.930;8.606;2024-02-21T02:20:29;100820.91;;;9.01;100.00
21956;BME280;11142;49.930;8.606;2024-02-21T02:22:58;100821.53;;;9.06;100.00
21956;BME280;11142;49.930;8.606;2024-02-21T02:25:28;100817.34;;;9.03;100.00
21956;BME280;11142;49.930;8.606;2024-02-21T02:27:57;100810.34;;;9.05;100.00
21956;BME280;11142;49.930;8.606;2024-02-21T02:30:25;100813.63;;;9.09;100.00
21956;BME280;11142;49.930;8.606;2024-02-21T02:32:52;100802.16;;;8.96;100.00
21956;BME280;11142;49.930;8.606;2024-02-21T02:35:20;100795.81;;;9.03;100.00
21956;BME280;11142;49.930;8.606;2024-02-21T02:37:50;100791.94;;;8.93;100.00
21956;BME280;11142;49.930;8.606;2024-02-21T02:40:18;100792.41;;;8.82;100.00
21956;BME280;11142;49.930;8.606;2024-02-21T02:42:48;100789.97;;;8.79;100.00
21956;BME280;11142;49.930;8.606;2024-02-21T02:45:18;100788.22;;;8.80;100.00
21956;BME280;11142;49.930;8.606;2024-02-21T02:47:47;100778.78;;;8.79;100.00
21956;BME280;11142;49.930;8.606;2024-02-21T02:50:15;100768.56;;;8.76;100.00
21956;BME280;11142;49.930;8.606;2024-02-21T02:52:44;100757.50;;;8.72;100.00
21956;BME280;11142;49.930;8.606;2024-02-21T02:55:12;100760.19;;;8.71;100.00
21956;BME280;11142;49.930;8.606;2024-02-21T02:57:40;100762.06;;;8.67;100.00
21956;BME280;11142;49.930;8.606;2024-02-21T03:00:12;100768.00;;;8.69;100.00
21956;BME280;11142;49.930;8.606;2024-02-21T03:02:42;100769.41;;;8.76;100.00
21956;BME280;11142;49.930;8.606;2024-02-21T03:05:12;100774.38;;;8.81;100.00
21956;BME280;11142;49.930;8.606;2024-02-21T03:07:42;100771.94;;;8.78;100.00
21956;BME280;11142;49.930;8.606;2024-02-21T03:10:11;100763.06;;;8.83;100.00
21956;BME280;11142;49.930;8.606;2024-02-21T03:12:40;100769.63;;;8.72;100.00
21956;BME280;11142;49.930;8.606;2024-02-21T03:15:10;100753.13;;;8.56;100.00
21956;BME280;11142;49.930;8.606;2024-02-21T03:17:38;100750.25;;;8.62;100.00
21956;BME280;11142;49.930;8.606;2024-02-21T03:20:07;100752.63;;;8.66;100.00
21956;BME280;11142;49.930;8.606;2024-02-21T03:22:39;100749.09;;;8.48;100.00
21956;BME280;11142;49.930;8.606;2024-02-21T03:25:08;100736.72;;;8.36;100.00
21956;BME280;11142;49.930;8.606;2024-02-21T03:27:40;100734.88;;;8.18;100.00
21956;BME280;11142;49.930;8.606;2024-02-21T03:30:10;100731.13;;;8.25;100.00
21956;BME280;11142;49.930;8.606;2024-02-21T03:32:41;100714.19;;;8.18;100.00
21956;BME280;11142;49.930;8.606;2024-02-21T03:35:09;100716.34;;;8.09;100.00
21956;BME280;11142;49.930;8.606;2024-02-21T03:37:37;100705.09;;;8.10;100.00
21956;BME280;11142;49.930;8.606;2024-02-21T03:40:10;100695.63;;;8.10;100.00
21956;BME280;11142;49.930;8.606;2024-02-21T03:42:38;100704.31;;;8.28;100.00
21956;BME280;11142;49.930;8.606;2024-02-21T03:45:11;100710.22;;;8.31;100.00
21956;BME280;11142;49.930;8.606;2024-02-21T03:47:39;100708.59;;;8.29;100.00
21956;BME280;11142;49.930;8.606;2024-02-21T03:50:08;100707.72;;;8.30;100.00
21956;BME280;11142;49.930;8.606;2024-02-21T03:52:36;100700.38;;;8.39;100.00
21956;BME280;11142;49.930;8.606;2024-02-21T03:55:05;100705.88;;;8.32;100.00
21956;BME280;11142;49.930;8.606;2024-02-21T03:57:34;100709.25;;;8.34;100.00
21956;BME280;11142;49.930;8.606;2024-02-21T04:00:04;100714.44;;;8.34;100.00
21956;BME280;11142;49.930;8.606;2024-02-21T04:02:39;100713.09;;;8.44;100.00
21956;BME280;11142;49.930;8.606;2024-02-21T04:05:07;100710.38;;;8.47;100.00
21956;BME280;11142;49.930;8.606;2024-02-21T04:07:38;100709.41;;;8.49;100.00
21956;BME280;11142;49.930;8.606;2024-02-21T04:10:08;100714.03;;;8.62;100.00
21956;BME280;11142;49.930;8.606;2024-02-21T04:12:37;100724.25;;;8.65;100.00
21956;BME280;11142;49.930;8.606;2024-02-21T04:15:05;100714.94;;;8.79;100.00
21956;BME280;11142;49.930;8.606;2024-02-21T04:17:34;100716.41;;;9.03;100.00
21956;BME280;11142;49.930;8.606;2024-02-21T04:20:06;100725.06;;;9.02;100.00
21956;BME280;11142;49.930;8.606;2024-02-21T04:22:35;100725.75;;;9.06;100.00
21956;BME280;11142;49.930;8.606;2024-02-21T04:25:04;100718.59;;;9.11;100.00
21956;BME280;11142;49.930;8.606;2024-02-21T04:27:33;100715.25;;;9.09;100.00
21956;BME280;11142;49.930;8.606;2024-02-21T04:30:01;100701.78;;;8.84;100.00
21956;BME280;11142;49.930;8.606;2024-02-21T04:32:30;100689.72;;;8.66;100.00
21956;BME280;11142;49.930;8.606;2024-02-21T04:34:58;100690.53;;;8.66;100.00
21956;BME280;11142;49.930;8.606;2024-02-21T04:37:31;100683.00;;;8.62;100.00
21956;BME280;11142;49.930;8.606;2024-02-21T04:39:59;100673.13;;;8.70;100.00
21956;BME280;11142;49.930;8.606;2024-02-21T04:42:28;100666.69;;;8.60;100.00
21956;BME280;11142;49.930;8.606;2024-02-21T04:44:56;100666.34;;;8.48;100.00
21956;BME280;11142;49.930;8.606;2024-02-21T04:47:24;100659.91;;;8.57;100.00
21956;BME280;11142;49.930;8.606;2024-02-21T04:49:53;100639.03;;;8.23;100.00
21956;BME280;11142;49.930;8.606;2024-02-21T04:52:21;100623.34;;;7.88;100.00
21956;BME280;11142;49.930;8.606;2024-02-21T04:54:52;100632.72;;;7.91;100.00
21956;BME280;11142;49.930;8.606;2024-02-21T04:57:20;100613.06;;;7.87;100.00
21956;BME280;11142;49.930;8.606;2024-02-21T04:59:48;100605.47;;;7.84;100.00
21956;BME280;11142;49.930;8.606;2024-02-21T05:02:16;100590.78;;;7.66;100.00
21956;BME280;11142;49.930;8.606;2024-02-21T05:04:46;100584.06;;;7.62;100.00
21956;BME280;11142;49.930;8.606;2024-02-21T05:07:14;100582.16;;;7.85;100.00
21956;BME280;11142;49.930;8.606;2024-02-21T05:09:42;100583.94;;;7.83;100.00
21956;BME280;11142;49.930;8.606;2024-02-21T05:12:13;100588.97;;;7.86;100.00
21956;BME280;11142;49.930;8.606;2024-02-21T05:14:42;100582.22;;;7.84;100.00
21956;BME280;11142;49.930;8.606;2024-02-21T05:17:09;100584.03;;;7.82;100.00
21956;BME280;11142;49.930;8.606;2024-02-21T05:19:38;100571.66;;;7.70;100.00
21956;BME280;11142;49.930;8.606;2024-02-21T05:22:06;100575.53;;;7.60;100.00
21956;BME280;11142;49.930;8.606;2024-02-21T05:24:34;100564.00;;;7.48;100.00
21956;BME280;11142;49.930;8.606;2024-02-21T05:27:03;100569.44;;;7.42;100.00
21956;BME280;11142;49.930;8.606;2024-02-21T05:29:32;100573.75;;;7.41;100.00
21956;BME280;11142;49.930;8.606;2024-02-21T05:32:01;100574.13;;;7.53;100.00
21956;BME280;11142;49.930;8.606;2024-02-21T05:34:30;100575.84;;;7.52;100.00
21956;BME280;11142;49.930;8.606;2024-02-21T05:36:59;100585.47;;;7.69;100.00
21956;BME280;11142;49.930;8.606;2024-02-21T05:39:27;100585.34;;;7.72;100.00
21956;BME280;11142;49.930;8.606;2024-02-21T05:41:56;100594.03;;;7.89;100.00
21956;BME280;11142;49.930;8.606;2024-02-21T05:44:24;100600.94;;;7.89;100.00
21956;BME280;11142;49.930;8.606;2024-02-21T05:46:55;100606.47;;;8.00;100.00
21956;BME280;11142;49.930;8.606;2024-02-21T05:49:23;100616.09;;;7.96;100.00
21956;BME280;11142;49.930;8.606;2024-02-21T05:51:51;100603.84;;;8.20;100.00
21956;BME280;11142;49.930;8.606;2024-02-21T05:54:19;100611.66;;;8.37;100.00
21956;BME280;11142;49.930;8.606;2024-02-21T05:56:47;100606.25;;;8.43;100.00
21956;BME280;11142;49.930;8.606;2024-02-21T05:59:15;100606.84;;;8.67;100.00
21956;BME280;11142;49.930;8.606;2024-02-21T06:01:43;100618.53;;;8.93;100.00
21956;BME280;11142;49.930;8.606;2024-02-21T06:04:13;100625.66;;;9.06;100.00
21956;BME280;11142;49.930;8.606;2024-02-21T06:06:41;100636.09;;;9.22;100.00
21956;BME280;11142;49.930;8.606;2024-02-21T06:09:09;100639.38;;;9.26;100.00
21956;BME280;11142;49.930;8.606;2024-02-21T06:11:37;100641.56;;;9.33;100.00
21956;BME280;11142;49.930;8.606;2024-02-21T06:14:05;100634.03;;;9.29;100.00
21956;BME280;11142;49.930;8.606;2024-02-21T06:16:33;100640.50;;;9.20;100.00
21956;BME280;11142;49.930;8.606;2024-02-21T06:19:01;100637.84;;;9.22;100.00
21956;BME280;11142;49.930;8.606;2024-02-21T06:21:36;100618.25;;;8.99;100.00
21956;BME280;11142;49.930;8.606;2024-02-21T06:24:04;100616.00;;;8.74;100.00
21956;BME280;11142;49.930;8.606;2024-02-21T06:26:32;100612.09;;;8.66;100.00
21956;BME280;11142;49.930;8.606;2024-02-21T06:29:00;100610.84;;;8.56;100.00
21956;BME280;11142;49.930;8.606;2024-02-21T06:31:29;100606.16;;;8.45;100.00
21956;BME280;11142;49.930;8.606;2024-02-21T06:33:59;100600.94;;;8.46;100.00
21956;BME280;11142;49.930;8.606;2024-02-21T06:36:27;100596.00;;;8.40;100.00
21956;BME280;11142;49.930;8.606;2024-02-21T06:38:56;100595.34;;;8.37;100.00
21956;BME280;11142;49.930;8.606;2024-02-21T06:41:27;100583.00;;;8.23;100.00
21956;BME280;11142;49.930;8.606;2024-02-21T06:43:59;100567.94;;;8.14;100.00
21956;BME280;11142;49.930;8.606;2024-02-21T06:46:28;100557.16;;;8.05;100.00
21956;BME280;11142;49.930;8.606;2024-02-21T06:48:56;100553.78;;;8.02;100.00
21956;BME280;11142;49.930;8.606;2024-02-21T06:51:24;100547.63;;;7.86;100.00
21956;BME280;11142;49.930;8.606;2024-02-21T06:53:52;100557.44;;;7.80;100.00
21956;BME280;11142;49.930;8.606;2024-02-21T06:56:26;100560.78;;;7.82;100.00
21956;BME280;11142;49.930;8.606;2024-02-21T06:58:57;100550.72;;;7.76;100.00
21956;BME280;11142;49.930;8.606;2024-02-21T07:01:26;100554.34;;;7.90;100.00
21956;BME280;11142;49.930;8.606;2024-02-21T07:03:55;100559.25;;;7.96;100.00
21956;BME280;11142;49.930;8.606;2024-02-21T07:06:24;100560.31;;;8.11;100.00
21956;BME280;11142;49.930;8.606;2024-02-21T07:08:52;100566.09;;;8.16;100.00
21956;BME280;11142;49.930;8.606;2024-02-21T07:11:21;100570.59;;;8.31;100.00
21956;BME280;11142;49.930;8.606;2024-02-21T07:13:52;100570.66;;;8.48;100.00
21956;BME280;11142;49.930;8.606;2024-02-21T07:16:23;100571.53;;;8.66;100.00
21956;BME280;11142;49.930;8.606;2024-02-21T07:18:51;100584.69;;;8.62;100.00
21956;BME280;11142;49.930;8.606;2024-02-21T07:21:21;100583.94;;;8.77;100.00
21956;BME280;11142;49.930;8.606;2024-02-21T07:23:53;100583.06;;;8.78;100.00
21956;BME280;11142;49.930;8.606;2024-02-21T07:26:24;100586.28;;;9.00;100.00
21956;BME280;11142;49.930;8.606;2024-02-21T07:28:53;100593.09;;;9.01;100.00
21956;BME280;11142;49.930;8.606;2024-02-21T07:31:21;100589.94;;;9.13;100.00
21956;BME280;11142;49.930;8.606;2024-02-21T07:33:49;100598.16;;;9.38;100.00
21956;BME280;11142;49.930;8.606;2024-02-21T07:36:27;100600.28;;;9.30;100.00
21956;BME280;11142;49.930;8.606;2024-02-21T07:38:56;100599.72;;;9.58;100.00
21956;BME280;11142;49.930;8.606;2024-02-21T07:41:26;100614.88;;;9.66;100.00
21956;BME280;11142;49.930;8.606;2024-02-21T07:43:57;100622.66;;;9.83;100.00
21956;BME280;11142;49.930;8.606;2024-02-21T07:46:26;100624.06;;;9.88;100.00
21956;BME280;11142;49.930;8.606;2024-02-21T07:48:54;100624.59;;;9.95;100.00
21956;BME280;11142;49.930;8.606;2024-02-21T07:51:27;100619.31;;;9.96;100.00
21956;BME280;11142;49.930;8.606;2024-02-21T07:53:58;100609.22;;;10.07;100.00
21956;BME280;11142;49.930;8.606;2024-02-21T07:56:27;100625.44;;;10.28;100.00
21956;BME280;11142;49.930;8.606;2024-02-21T07:58:56;100610.81;;;10.27;100.00
21956;BME280;11142;49.930;8.606;2024-02-21T08:01:25;100616.06;;;10.26;100.00
21956;BME280;11142;49.930;8.606;2024-02-21T08:03:53;100612.94;;;10.19;100.00
21956;BME280;11142;49.930;8.606;2024-02-21T08:06:21;100627.53;;;10.37;100.00
21956;BME280;11142;49.930;8.606;2024-02-21T08:08:49;100610.72;;;10.44;100.00
21956;BME280;11142;49.930;8.606;2024-02-21T08:11:17;100613.13;;;10.32;100.00
21956;BME280;11142;49.930;8.606;2024-02-21T08:13:45;100613.69;;;10.21;100.00
21956;BME280;11142;49.930;8.606;2024-02-21T08:16:15;100602.56;;;10.19;100.00
21956;BME280;11142;49.930;8.606;2024-02-21T08:18:45;100598.41;;;10.48;100.00
21956;BME280;11142;49.930;8.606;2024-02-21T08:21:13;100597.34;;;10.36;100.00
21956;BME280;11142;49.930;8.606;2024-02-21T08:23:42;100597.72;;;10.29;100.00
21956;BME280;11142;49.930;8.606;2024-02-21T08:26:11;100584.19;;;10.24;100.00
21956;BME280;11142;49.930;8.606;2024-02-21T08:28:42;100582.44;;;10.24;100.00
21956;BME280;11142;49.930;8.606;2024-02-21T08:31:19;100575.81;;;10.19;100.00
21956;BME280;11142;49.930;8.606;2024-02-21T08:33:48;100581.50;;;10.25;100.00
21956;BME280;11142;49.930;8.606;2024-02-21T08:36:17;100581.66;;;10.38;100.00
21956;BME280;11142;49.930;8.606;2024-02-21T08:38:46;100582.16;;;10.60;100.00
21956;BME280;11142;49.930;8.606;2024-02-21T08:41:14;100581.66;;;10.69;100.00
21956;BME280;11142;49.930;8.606;2024-02-21T08:43:43;100585.06;;;10.85;100.00
21956;BME280;11142;49.930;8.606;2024-02-21T08:46:12;100584.16;;;10.71;100.00
21956;BME280;11142;49.930;8.606;2024-02-21T08:48:42;100586.44;;;10.61;100.00
21956;BME280;11142;49.930;8.606;2024-02-21T08:51:13;100585.03;;;10.55;100.00
21956;BME280;11142;49.930;8.606;2024-02-21T08:53:42;100582.75;;;10.65;100.00
21956;BME280;11142;49.930;8.606;2024-02-21T08:56:10;100586.63;;;10.88;100.00
21956;BME280;11142;49.930;8.606;2024-02-21T08:58:39;100577.09;;;11.18;100.00
21956;BME280;11142;49.930;8.606;2024-02-21T09:01:09;100579.38;;;11.38;100.00
21956;BME280;11142;49.930;8.606;2024-02-21T09:03:38;100580.09;;;11.26;100.00
21956;BME280;11142;49.930;8.606;2024-02-21T09:06:12;100576.31;;;11.32;100.00
21956;BME280;11142;49.930;8.606;2024-02-21T09:08:41;100574.75;;;11.43;100.00
21956;BME280;11142;49.930;8.606;2024-02-21T09:11:11;100579.00;;;11.88;100.00
21956;BME280;11142;49.930;8.606;2024-02-21T09:13:39;100580.91;;;12.13;100.00
21956;BME280;11142;49.930;8.606;2024-02-21T09:16:07;100573.03;;;12.00;100.00
21956;BME280;11142;49.930;8.606;2024-02-21T09:18:38;100567.19;;;12.11;100.00
21956;BME280;11142;49.930;8.606;2024-02-21T09:21:06;100566.06;;;12.01;100.00
21956;BME280;11142;49.930;8.606;2024-02-21T09:23:39;100562.94;;;11.82;100.00
21956;BME280;11142;49.930;8.606;2024-02-21T09:26:07;100552.66;;;11.64;100.00
21956;BME280;11142;49.930;8.606;2024-02-21T09:28:40;100554.81;;;11.86;100.00
21956;BME280;11142;49.930;8.606;2024-02-21T09:31:08;100557.72;;;11.82;100.00
21956;BME280;11142;49.930;8.606;2024-02-21T09:33:36;100548.38;;;12.20;100.00
21956;BME280;11142;49.930;8.606;2024-02-21T09:36:08;100542.34;;;12.19;100.00
21956;BME280;11142;49.930;8.606;2024-02-21T09:38:39;100535.91;;;11.70;100.00
21956;BME280;11142;49.930;8.606;2024-02-21T09:41:14;100541.91;;;11.70;100.00
21956;BME280;11142;49.930;8.606;2024-02-21T09:43:51;100539.41;;;12.38;100.00
21956;BME280;11142;49.930;8.606;2024-02-21T09:46:28;100541.03;;;12.80;100.00
21956;BME280;11142;49.930;8.606;2024-02-21T09:49:09;100543.13;;;13.27;100.00
21956;BME280;11142;49.930;8.606;2024-02-21T09:51:43;100536.44;;;13.61;100.00
21956;BME280;11142;49.930;8.606;2024-02-21T09:54:14;100544.78;;;13.78;100.00
21956;BME280;11142;49.930;8.606;2024-02-21T09:56:45;100541.16;;;14.77;97.29
21956;BME280;11142;49.930;8.606;2024-02-21T09:59:13;100534.72;;;15.05;94.20
21956;BME280;11142;49.930;8.606;2024-02-21T10:01:42;100541.50;;;14.73;93.69
21956;BME280;11142;49.930;8.606;2024-02-21T10:04:10;100537.94;;;15.09;92.85
21956;BME280;11142;49.930;8.606;2024-02-21T10:06:39;100535.13;;;14.88;92.23
21956;BME280;11142;49.930;8.606;2024-02-21T10:09:21;100535.59;;;14.82;91.41
21956;BME280;11142;49.930;8.606;2024-02-21T10:11:50;100525.63;;;15.22;90.50
21956;BME280;11142;49.930;8.606;2024-02-21T10:14:20;100520.09;;;14.44;92.33
21956;BME280;11142;49.930;8.606;2024-02-21T10:16:56;100519.84;;;14.23;93.57
21956;BME280;11142;49.930;8.606;2024-02-21T10:19:25;100513.16;;;14.19;94.33
21956;BME280;11142;49.930;8.606;2024-02-21T10:22:01;100518.25;;;14.21;94.44
21956;BME280;11142;49.930;8.606;2024-02-21T10:24:31;100507.53;;;14.49;94.01
21956;BME280;11142;49.930;8.606;2024-02-21T10:27:05;100503.22;;;14.96;91.70
21956;BME280;11142;49.930;8.606;2024-02-21T10:29:35;100512.53;;;15.22;89.69
21956;BME280;11142;49.930;8.606;2024-02-21T10:32:07;100493.94;;;14.33;91.10
21956;BME280;11142;49.930;8.606;2024-02-21T10:34:39;100486.72;;;14.24;93.44
21956;BME280;11142;49.930;8.606;2024-02-21T10:37:09;100488.53;;;14.23;93.78
21956;BME280;11142;49.930;8.606;2024-02-21T10:39:40;100485.78;;;14.72;92.75
21956;BME280;11142;49.930;8.606;2024-02-21T10:42:11;100487.47;;;14.84;91.78
21956;BME280;11142;49.930;8.606;2024-02-21T10:44:40;100478.63;;;14.63;90.81
21956;BME280;11142;49.930;8.606;2024-02-21T10:47:11;100462.75;;;13.95;92.08
21956;BME280;11142;49.930;8.606;2024-02-21T10:49:44;100458.19;;;13.73;93.87
21956;BME280;11142;49.930;8.606;2024-02-21T10:52:28;100460.66;;;14.11;93.99
21956;BME280;11142;49.930;8.606;2024-02-21T10:55:04;100448.75;;;14.20;93.00
21956;BME280;11142;49.930;8.606;2024-02-21T10:57:34;100457.03;;;14.14;93.19
21956;BME280;11142;49.930;8.606;2024-02-21T11:00:05;100460.84;;;14.21;93.76
21956;BME280;11142;49.930;8.606;2024-02-21T11:02:36;100451.00;;;14.72;92.25
21956;BME280;11142;49.930;8.606;2024-02-21T11:05:08;100453.28;;;14.87;90.59
21956;BME280;11142;49.930;8.606;2024-02-21T11:07:37;100450.72;;;15.10;90.49
21956;BME280;11142;49.930;8.606;2024-02-21T11:10:22;100435.28;;;15.29;88.69
21956;BME280;11142;49.930;8.606;2024-02-21T11:12:52;100437.31;;;15.48;87.90
21956;BME280;11142;49.930;8.606;2024-02-21T11:15:26;100433.88;;;15.69;86.43
21956;BME280;11142;49.930;8.606;2024-02-21T11:17:57;100424.47;;;15.67;85.99
21956;BME280;11142;49.930;8.606;2024-02-21T11:20:35;100413.06;;;15.79;85.35
21956;BME280;11142;49.930;8.606;2024-02-21T11:23:03;100411.16;;;16.13;84.45
21956;BME280;11142;49.930;8.606;2024-02-21T11:25:33;100409.59;;;17.55;77.39
21956;BME280;11142;49.930;8.606;2024-02-21T11:28:02;100411.88;;;17.88;72.68
21956;BME280;11142;49.930;8.606;2024-02-21T11:30:32;100411.22;;;17.26;73.45
21956;BME280;11142;49.930;8.606;2024-02-21T11:33:05;100399.81;;;17.76;73.31
21956;BME280;11142;49.930;8.606;2024-02-21T11:35:34;100399.72;;;17.47;73.89
21956;BME280;11142;49.930;8.606;2024-02-21T11:38:09;100389.78;;;15.97;78.17
21956;BME280;11142;49.930;8.606;2024-02-21T11:40:45;100378.50;;;15.53;81.67
21956;BME280;11142;49.930;8.606;2024-02-21T11:43:15;100368.75;;;15.22;84.33
21956;BME280;11142;49.930;8.606;2024-02-21T11:45:43;100371.25;;;15.12;85.22
21956;BME280;11142;49.930;8.606;2024-02-21T11:48:11;100364.16;;;14.57;86.63
21956;BME280;11142;49.930;8.606;2024-02-21T11:50:39;100357.22;;;14.80;87.15
21956;BME280;11142;49.930;8.606;2024-02-21T11:53:09;100357.03;;;14.59;87.52
21956;BME280;11142;49.930;8.606;2024-02-21T11:55:36;100351.81;;;14.24;88.53
21956;BME280;11142;49.930;8.606;2024-02-21T11:58:07;100347.63;;;14.11;89.70
21956;BME280;11142;49.930;8.606;2024-02-21T12:00:35;100344.66;;;14.15;90.28
21956;BME280;11142;49.930;8.606;2024-02-21T12:03:04;100341.16;;;14.84;89.58
21956;BME280;11142;49.930;8.606;2024-02-21T12:05:34;100333.09;;;15.21;87.34
21956;BME280;11142;49.930;8.606;2024-02-21T12:08:04;100327.97;;;15.30;85.59
21956;BME280;11142;49.930;8.606;2024-02-21T12:10:33;100315.47;;;15.56;85.57
21956;BME280;11142;49.930;8.606;2024-02-21T12:13:08;100312.94;;;15.98;83.31
21956;BME280;11142;49.930;8.606;2024-02-21T12:15:38;100302.09;;;16.23;80.88
21956;BME280;11142;49.930;8.606;2024-02-21T12:18:07;100303.31;;;15.66;81.85
21956;BME280;11142;49.930;8.606;2024-02-21T12:20:38;100291.16;;;15.11;85.00
21956;BME280;11142;49.930;8.606;2024-02-21T12:23:09;100282.38;;;15.01;84.84
21956;BME280;11142;49.930;8.606;2024-02-21T12:25:38;100282.19;;;15.36;85.00
21956;BME280;11142;49.930;8.606;2024-02-21T12:28:08;100285.00;;;15.87;84.20
21956;BME280;11142;49.930;8.606;2024-02-21T12:30:36;100280.63;;;16.29;81.23
21956;BME280;11142;49.930;8.606;2024-02-21T12:33:07;100268.84;;;16.65;78.79
21956;BME280;11142;49.930;8.606;2024-02-21T12:35:38;100270.94;;;17.11;77.14
21956;BME280;11142;49.930;8.606;2024-02-21T12:38:05;100260.47;;;17.30;73.43
21956;BME280;11142;49.930;8.606;2024-02-21T12:40:40;100255.47;;;17.08;73.50
21956;BME280;11142;49.930;8.606;2024-02-21T12:43:09;100252.34;;;16.74;75.12
21956;BME280;11142;49.930;8.606;2024-02-21T12:45:46;100247.50;;;15.98;79.86
21956;BME280;11142;49.930;8.606;2024-02-21T12:48:17;100240.25;;;15.69;82.20
21956;BME280;11142;49.930;8.606;2024-02-21T12:50:48;100229.09;;;15.88;80.54
21956;BME280;11142;49.930;8.606;2024-02-21T12:53:18;100226.41;;;15.04;83.57
21956;BME280;11142;49.930;8.606;2024-02-21T12:55:58;100219.84;;;15.20;84.54
21956;BME280;11142;49.930;8.606;2024-02-21T12:58:28;100215.66;;;15.61;84.40
21956;BME280;11142;49.930;8.606;2024-02-21T13:00:58;100211.00;;;15.32;83.27
21956;BME280;11142;49.930;8.606;2024-02-21T13:03:27;100225.22;;;15.08;84.86
21956;BME280;11142;49.930;8.606;2024-02-21T13:05:59;100221.06;;;14.94;85.84
21956;BME280;11142;49.930;8.606;2024-02-21T13:08:29;100229.78;;;14.50;86.84
21956;BME280;11142;49.930;8.606;2024-02-21T13:11:01;100210.16;;;14.22;88.01
21956;BME280;11142;49.930;8.606;2024-02-21T13:13:31;100203.03;;;14.24;89.17
21956;BME280;11142;49.930;8.606;2024-02-21T13:16:02;100190.38;;;14.42;88.67